Time;durP1;ratioP1;P1;durP2;ratioP2;P2;SDS_P1;SDS_P2;PMS_P1;PMS_P2;Temp;Humidity;BMP_temperature;BMP_pressure;BME280_temperature;BME280_humidity;BME280_pressure;Samples;Min_cycle;Max_cycle;Signal;HPM_P1;HPM_P2
2022/09/15 00:00:50;;;;;;;15.25;10.70;;;;;;;15.46;75.74;100660.03;6304695;22;20014;-59
2022/09/15 00:03:16;;;;;;;16.60;11.80;;;;;;;15.43;75.85;100655.03;6305078;22;20007;-59
2022/09/15 00:05:42;;;;;;;15.70;10.60;;;;;;;15.46;75.56;100659.22;6302304;22;20427;-59
2022/09/15 00:08:07;;;;;;;15.05;10.82;;;;;;;15.46;75.63;100651.66;6304379;22;20010;-59
2022/09/15 00:10:32;;;;;;;13.43;10.68;;;;;;;15.44;75.59;100648.31;6304484;22;20003;-60
2022/09/15 00:12:57;;;;;;;17.73;11.38;;;;;;;15.43;75.62;100646.63;6304376;22;20018;-59
2022/09/15 00:15:23;;;;;;;14.57;11.40;;;;;;;15.41;75.63;100653.66;6305078;22;20061;-59
2022/09/15 00:17:50;;;;;;;15.63;11.15;;;;;;;15.40;75.59;100654.75;6304884;22;20026;-59
2022/09/15 00:20:18;;;;;;;15.07;11.82;;;;;;;15.41;75.23;100657.28;6302771;22;20099;-59
2022/09/15 00:22:44;;;;;;;14.20;11.27;;;;;;;15.35;75.39;100658.44;6304915;22;20011;-59
2022/09/15 00:25:10;;;;;;;17.08;11.68;;;;;;;15.36;75.34;100654.50;6303397;22;20078;-59
2022/09/15 00:27:35;;;;;;;16.48;12.18;;;;;;;15.34;75.72;100651.19;6304520;22;20014;-59
2022/09/15 00:30:01;;;;;;;16.05;11.70;;;;;;;15.34;75.57;100640.00;6305038;22;20060;-59
2022/09/15 00:32:28;;;;;;;14.68;11.55;;;;;;;15.28;75.58;100640.31;6303716;22;20011;-59
2022/09/15 00:34:53;;;;;;;17.95;12.40;;;;;;;15.32;75.76;100631.03;6304735;22;20007;-60
2022/09/15 00:37:18;;;;;;;14.63;12.25;;;;;;;15.31;75.93;100628.56;6305128;22;20003;-59
2022/09/15 00:39:44;;;;;;;14.02;11.52;;;;;;;15.32;75.67;100642.22;6303563;22;20007;-60
2022/09/15 00:42:18;;;;;;;18.23;12.68;;;;;;;15.34;75.77;100630.78;6304659;22;20031;-59
2022/09/15 00:44:55;;;;;;;16.88;12.85;;;;;;;15.33;76.28;100629.94;6304285;22;20082;-60
2022/09/15 00:47:28;;;;;;;16.02;12.07;;;;;;;15.31;76.18;100634.97;6304306;22;20008;-57
2022/09/15 00:50:10;;;;;;;16.02;12.15;;;;;;;15.33;76.10;100635.53;6304993;22;20003;-57
2022/09/15 00:52:46;;;;;;;18.60;13.85;;;;;;;15.35;76.35;100638.03;6304896;22;20022;-57
2022/09/15 00:55:19;;;;;;;15.75;12.10;;;;;;;15.33;76.30;100641.13;6301905;22;20007;-57
2022/09/15 00:58:09;;;;;;;16.38;12.57;;;;;;;15.39;76.19;100637.16;6305099;22;20073;-57
2022/09/15 01:00:35;;;;;;;16.23;12.13;;;;;;;15.31;76.16;100634.97;6301848;22;20049;-58
2022/09/15 01:03:02;;;;;;;17.88;13.25;;;;;;;15.31;76.25;100637.78;6303488;22;20010;-58
2022/09/15 01:05:37;;;;;;;19.33;13.65;;;;;;;15.35;76.38;100643.63;6304361;22;20011;-58
2022/09/15 01:08:09;;;;;;;17.20;13.02;;;;;;;15.31;76.43;100637.78;6302670;22;20099;-58
2022/09/15 01:10:38;;;;;;;18.08;13.38;;;;;;;15.35;76.41;100646.41;6304583;22;20442;-59
2022/09/15 01:13:06;;;;;;;17.23;13.25;;;;;;;15.33;76.46;100643.94;6303700;22;20031;-58
2022/09/15 01:15:53;;;;;;;18.13;12.93;;;;;;;15.35;76.61;100640.81;6302468;22;20019;-58
2022/09/15 01:18:38;;;;;;;19.65;13.82;;;;;;;15.38;76.80;100640.25;6303015;22;20327;-58
2022/09/15 01:21:14;;;;;;;15.38;13.63;;;;;;;15.38;76.69;100635.50;6305020;22;20049;-59
2022/09/15 01:23:58;;;;;;;18.08;13.68;;;;;;;15.38;76.77;100632.69;6303636;22;20048;-58
2022/09/15 01:26:29;;;;;;;17.13;13.18;;;;;;;15.37;76.77;100628.22;6304899;22;20008;-58
2022/09/15 01:29:27;;;;;;;18.92;14.00;;;;;;;15.41;76.68;100636.88;6302230;22;20056;-58
2022/09/15 01:35:09;;;;;;;17.40;13.18;;;;;;;15.37;76.77;100636.63;6306270;22;20022;-58
2022/09/15 01:37:40;;;;;;;15.95;13.27;;;;;;;15.35;76.93;100641.66;6305741;22;20019;-58
2022/09/15 01:40:07;;;;;;;17.13;13.85;;;;;;;15.37;76.95;100633.81;6305451;22;20039;-58
2022/09/15 01:42:34;;;;;;;22.90;13.35;;;;;;;15.35;76.84;100635.22;6304554;22;20047;-58
2022/09/15 01:45:07;;;;;;;21.58;13.93;;;;;;;15.34;76.95;100642.78;6306064;22;20080;-58
2022/09/15 01:47:34;;;;;;;16.13;13.43;;;;;;;15.32;76.97;100639.44;6306246;22;20014;-58
2022/09/15 01:50:08;;;;;;;15.70;12.32;;;;;;;15.33;77.00;100643.94;6305333;22;20060;-58
2022/09/15 01:52:33;;;;;;;16.58;13.25;;;;;;;15.33;76.73;100643.09;6305936;22;20011;-58
2022/09/15 01:55:02;;;;;;;18.13;13.57;;;;;;;15.29;76.88;100636.38;6306627;22;20323;-58
2022/09/15 01:57:27;;;;;;;15.18;12.82;;;;;;;15.30;76.66;100636.09;6304738;22;20017;-59
2022/09/15 01:59:55;;;;;;;17.80;13.30;;;;;;;15.25;76.66;100636.16;6306555;22;20023;-58
2022/09/15 02:02:34;;;;;;;16.85;12.75;;;;;;;15.29;76.97;100641.97;6306590;22;20301;-58
2022/09/15 02:05:24;;;;;;;19.13;12.73;;;;;;;15.31;76.47;100637.78;6304864;22;20010;-58
2022/09/15 02:07:55;;;;;;;18.70;13.02;;;;;;;15.28;76.70;100637.50;6306376;22;20007;-58
2022/09/15 02:10:37;;;;;;;18.67;13.27;;;;;;;15.30;76.38;100626.88;6306084;22;20451;-58
2022/09/15 02:13:15;;;;;;;16.40;13.32;;;;;;;15.27;76.45;100639.47;6305351;22;20039;-58
2022/09/15 02:15:50;;;;;;;17.85;12.85;;;;;;;15.24;76.72;100631.66;6306425;22;20078;-58
2022/09/15 02:18:33;;;;;;;15.00;13.02;;;;;;;15.26;76.74;100634.19;6304593;22;20007;-58
2022/09/15 02:21:10;;;;;;;17.15;13.40;;;;;;;15.20;77.04;100636.16;6305612;22;20022;-60
2022/09/15 02:23:44;;;;;;;16.67;13.00;;;;;;;15.23;76.89;100638.38;6305154;22;20129;-58
2022/09/15 02:26:16;;;;;;;17.33;13.10;;;;;;;15.26;76.78;100631.38;6304818;22;20015;-59
2022/09/15 02:28:43;;;;;;;16.80;12.52;;;;;;;15.26;76.71;100626.63;6305406;22;20470;-58
2022/09/15 02:31:12;;;;;;;17.75;13.93;;;;;;;15.20;76.86;100637.00;6305444;22;20003;-59
2022/09/15 02:33:43;;;;;;;18.05;13.20;;;;;;;15.22;76.83;100639.53;6305167;22;20009;-59
2022/09/15 02:36:12;;;;;;;15.77;12.98;;;;;;;15.21;76.62;100635.06;6305477;22;20074;-58
2022/09/15 02:38:44;;;;;;;15.38;13.05;;;;;;;15.18;76.76;100636.47;6304692;22;19999;-58
2022/09/15 02:41:12;;;;;;;;;;;;;;;15.37;75.88;100630.19;6304774;22;20003;-58
2022/09/15 02:43:47;;;;;;;15.55;12.48;;;;;;;15.19;76.51;100640.09;6306209;22;19930;-59
2022/09/15 02:46:14;;;;;;;15.15;12.57;;;;;;;15.17;76.22;100639.56;6305023;22;20043;-59
2022/09/15 02:48:40;;;;;;;15.25;13.23;;;;;;;15.14;76.41;100640.13;6306052;22;20007;-59
2022/09/15 02:51:05;;;;;;;17.58;13.00;;;;;;;15.11;76.36;100633.16;6304575;22;20442;-59
2022/09/15 02:53:30;;;;;;;15.07;12.63;;;;;;;15.13;76.08;100630.06;6305400;22;20010;-58
2022/09/15 02:55:56;;;;;;;16.15;12.80;;;;;;;15.12;76.22;100628.38;6305098;22;20038;-58
2022/09/15 02:58:22;;;;;;;18.10;12.55;;;;;;;15.08;76.11;100636.50;6306367;22;20006;-58
2022/09/15 03:00:48;;;;;;;16.92;12.85;;;;;;;15.08;75.97;100630.94;6304454;22;20003;-58
2022/09/15 03:03:14;;;;;;;13.93;12.15;;;;;;;15.07;76.03;100640.44;6306313;22;20003;-58
2022/09/15 03:05:39;;;;;;;14.80;12.75;;;;;;;15.08;75.87;100641.28;6305891;22;20047;-59
2022/09/15 03:08:04;;;;;;;15.23;13.02;;;;;;;15.06;75.88;100640.75;6305432;22;20481;-58
2022/09/15 03:10:31;;;;;;;19.95;13.80;;;;;;;15.01;75.79;100641.56;6305257;22;19999;-58
2022/09/15 03:12:57;;;;;;;13.88;11.77;;;;;;;14.96;75.64;100650.84;6305541;22;20003;-59
2022/09/15 03:15:24;;;;;;;13.55;12.15;;;;;;;15.00;75.59;100644.69;6304731;22;20373;-59
2022/09/15 03:17:52;;;;;;;14.77;12.32;;;;;;;14.95;75.50;100643.56;6303574;22;20384;-58
2022/09/15 03:20:24;;;;;;;14.00;12.50;;;;;;;14.95;75.80;100648.34;6304910;22;20007;-58
2022/09/15 03:22:50;;;;;;;15.57;13.20;;;;;;;14.93;75.51;100642.19;6304280;22;20003;-59
2022/09/15 03:25:16;;;;;;;15.60;12.90;;;;;;;14.92;75.51;100646.94;6302874;22;20343;-58
2022/09/15 03:27:41;;;;;;;13.93;12.43;;;;;;;14.92;75.75;100652.53;6304868;22;20003;-58
2022/09/15 03:30:08;;;;;;;15.25;12.93;;;;;;;14.93;75.97;100651.44;6303848;22;20380;-58
2022/09/15 03:32:34;;;;;;;14.18;12.68;;;;;;;14.92;76.01;100660.91;6304445;22;20106;-58
2022/09/15 03:34:59;;;;;;;15.85;12.60;;;;;;;14.95;76.05;100659.53;6303768;22;20046;-58
2022/09/15 03:37:25;;;;;;;14.57;12.57;;;;;;;14.94;76.33;100655.06;6304817;22;20142;-59
2022/09/15 03:39:50;;;;;;;17.98;13.20;;;;;;;14.94;76.57;100664.28;6304394;22;20487;-59
2022/09/15 03:42:16;;;;;;;17.08;13.13;;;;;;;14.93;76.62;100671.00;6303802;22;20013;-59
2022/09/15 03:44:41;;;;;;;17.70;13.57;;;;;;;14.95;76.65;100670.69;6303761;22;20065;-59
2022/09/15 03:47:07;;;;;;;18.15;12.50;;;;;;;14.96;76.57;100667.59;6303801;22;20435;-59
2022/09/15 03:49:32;;;;;;;17.23;13.32;;;;;;;14.97;76.47;100672.09;6302715;22;20011;-59
2022/09/15 03:51:57;;;;;;;17.38;12.68;;;;;;;14.97;76.39;100668.44;6304127;22;20035;-59
2022/09/15 03:54:24;;;;;;;15.00;12.38;;;;;;;14.97;76.57;100666.50;6304793;22;20038;-59
2022/09/15 03:56:50;;;;;;;17.80;12.63;;;;;;;15.00;76.14;100667.03;6302726;22;20371;-59
2022/09/15 03:59:17;;;;;;;14.70;13.18;;;;;;;14.98;76.29;100670.97;6304051;22;20007;-59
2022/09/15 04:01:44;;;;;;;17.52;12.98;;;;;;;14.95;76.17;100665.94;6302934;22;20028;-59
2022/09/15 04:04:09;;;;;;;17.52;12.85;;;;;;;14.94;76.17;100666.25;6302931;22;20003;-59
2022/09/15 04:06:37;;;;;;;14.15;12.30;;;;;;;14.95;75.98;100662.31;6305855;22;20408;-59
2022/09/15 04:09:03;;;;;;;14.95;12.40;;;;;;;14.91;76.12;100664.84;6305485;22;20007;-59
2022/09/15 04:11:29;;;;;;;14.05;12.65;;;;;;;14.96;76.05;100664.81;6305159;22;19999;-59
2022/09/15 04:13:55;;;;;;;16.23;12.18;;;;;;;14.96;76.14;100664.81;6305741;22;20399;-59
2022/09/15 04:16:23;;;;;;;18.88;12.80;;;;;;;14.95;76.10;100660.34;6305944;22;20007;-59
2022/09/15 04:18:49;;;;;;;16.33;13.05;;;;;;;14.94;76.21;100664.28;6302240;22;20411;-59
2022/09/15 04:21:18;;;;;;;15.80;12.20;;;;;;;14.95;76.00;100656.72;6305236;22;20004;-59
2022/09/15 04:23:45;;;;;;;16.00;12.38;;;;;;;14.94;75.97;100661.47;6304716;22;20009;-58
2022/09/15 04:26:16;;;;;;;17.58;13.10;;;;;;;14.90;76.07;100665.97;6304057;22;20040;-59
2022/09/15 04:28:41;;;;;;;16.38;12.90;;;;;;;14.95;76.02;100659.53;6305440;22;20008;-59
2022/09/15 04:31:09;;;;;;;17.88;12.55;;;;;;;14.95;76.07;100665.94;6303662;22;20569;-59
2022/09/15 04:33:35;;;;;;;17.30;12.60;;;;;;;14.95;76.03;100663.16;6303264;22;20003;-59
2022/09/15 04:36:04;;;;;;;15.30;11.95;;;;;;;14.91;76.39;100659.25;6303929;22;20420;-59
2022/09/15 04:38:30;;;;;;;15.68;12.52;;;;;;;14.91;76.38;100670.44;6304479;22;20030;-59
2022/09/15 04:40:56;;;;;;;17.17;12.65;;;;;;;14.92;76.31;100662.88;6304877;22;20003;-59
2022/09/15 04:43:22;;;;;;;18.13;13.07;;;;;;;14.91;76.38;100662.03;6305425;22;20009;-59
2022/09/15 04:45:47;;;;;;;17.60;12.60;;;;;;;14.89;76.54;100669.88;6304349;22;20003;-59
2022/09/15 04:48:13;;;;;;;15.02;11.98;;;;;;;14.86;76.51;100669.63;6305024;22;20010;-60
2022/09/15 04:50:39;;;;;;;16.45;12.60;;;;;;;14.92;76.74;100665.69;6305068;22;20378;-59
2022/09/15 04:53:05;;;;;;;17.83;12.70;;;;;;;14.88;76.72;100664.56;6304376;22;20349;-59
2022/09/15 04:55:32;;;;;;;16.90;13.35;;;;;;;14.90;76.70;100670.72;6305073;22;20003;-59
2022/09/15 04:57:58;;;;;;;15.00;13.50;;;;;;;14.90;76.58;100679.94;6304911;22;20370;-59
2022/09/15 05:00:25;;;;;;;18.05;13.18;;;;;;;14.89;76.63;100672.66;6305021;22;20007;-59
2022/09/15 05:02:51;;;;;;;15.75;13.15;;;;;;;14.90;76.38;100674.34;6303355;22;20000;-59
2022/09/15 05:05:16;;;;;;;16.02;13.48;;;;;;;14.88;76.53;100665.41;6303807;22;20104;-59
2022/09/15 05:07:42;;;;;;;14.55;13.00;;;;;;;14.89;76.65;100661.47;6303869;22;20449;-59
2022/09/15 05:10:07;;;;;;;17.67;14.25;;;;;;;14.88;76.63;100665.41;6305233;22;20102;-59
2022/09/15 05:12:33;;;;;;;17.00;13.18;;;;;;;14.89;76.41;100661.47;6306921;22;20011;-59
2022/09/15 05:14:58;;;;;;;17.85;12.63;;;;;;;14.88;76.43;100653.41;6305943;22;20411;-59
2022/09/15 05:17:23;;;;;;;13.77;12.23;;;;;;;14.86;76.81;100662.06;6307148;22;19999;-59
2022/09/15 05:19:49;;;;;;;15.43;12.15;;;;;;;14.87;76.59;100658.16;6306949;22;20090;-59
2022/09/15 05:22:14;;;;;;;17.88;12.70;;;;;;;14.86;76.63;100655.66;6306562;22;20060;-59
2022/09/15 05:24:39;;;;;;;16.95;12.60;;;;;;;14.86;76.79;100653.69;6306782;22;20007;-59
2022/09/15 05:27:04;;;;;;;15.30;12.75;;;;;;;14.84;77.03;100658.72;6305690;22;20015;-59
2022/09/15 05:29:33;;;;;;;14.13;12.70;;;;;;;14.88;76.66;100659.81;6304961;22;20003;-59
2022/09/15 05:31:58;;;;;;;15.43;12.25;;;;;;;14.87;76.93;100660.94;6304587;22;20395;-59
2022/09/15 05:34:23;;;;;;;16.42;12.05;;;;;;;14.85;77.16;100667.94;6305903;22;20010;-59
2022/09/15 05:36:48;;;;;;;14.82;13.07;;;;;;;14.86;77.21;100664.03;6304535;22;19999;-59
2022/09/15 05:39:14;;;;;;;16.23;12.32;;;;;;;14.88;77.18;100668.19;6302664;22;20011;-59
2022/09/15 05:41:40;;;;;;;17.55;11.93;;;;;;;14.85;77.35;100677.16;6304818;22;20466;-59
2022/09/15 05:44:05;;;;;;;14.68;12.73;;;;;;;14.88;77.09;100681.34;6306801;22;20090;-59
2022/09/15 05:46:30;;;;;;;15.70;12.98;;;;;;;14.90;77.27;100691.13;6306365;22;20052;-59
2022/09/15 05:48:57;;;;;;;17.20;13.10;;;;;;;14.90;77.11;100691.13;6302399;22;20320;-59
2022/09/15 05:51:23;;;;;;;18.70;14.02;;;;;;;14.90;77.19;100688.31;6300997;22;20007;-59
2022/09/15 05:53:48;;;;;;;19.42;14.13;;;;;;;14.88;77.31;100692.53;6301902;22;20081;-58
2022/09/15 05:56:17;;;;;;;18.40;13.63;;;;;;;14.89;77.38;100697.81;6300592;22;20442;-59
2022/09/15 05:58:45;;;;;;;19.17;14.23;;;;;;;14.90;77.59;100702.31;6301385;22;20082;-58
2022/09/15 06:01:14;;;;;;;21.60;14.73;;;;;;;14.91;77.47;100697.53;6301471;22;20242;-58
2022/09/15 06:03:39;;;;;;;17.92;14.93;;;;;;;14.95;77.10;100698.66;6302058;22;20014;-58
2022/09/15 06:06:05;;;;;;;19.23;14.15;;;;;;;14.92;77.31;100711.22;6302910;22;20022;-59
2022/09/15 06:08:33;;;;;;;19.45;13.77;;;;;;;14.94;77.45;100702.56;6305112;22;20007;-59
2022/09/15 06:11:09;;;;;;;17.95;15.07;;;;;;;14.96;77.51;100703.09;6304442;22;20030;-58
2022/09/15 06:13:35;;;;;;;17.55;14.68;;;;;;;14.99;77.21;100710.91;6306445;22;20007;-58
2022/09/15 06:16:12;;;;;;;14.45;12.40;;;;;;;15.03;77.64;100714.81;6307582;22;20056;-58
2022/09/15 06:18:38;;;;;;;19.73;15.15;;;;;;;15.02;77.72;100712.31;6304516;22;20391;-59
2022/09/15 06:21:06;;;;;;;17.63;14.90;;;;;;;15.01;77.54;100713.41;6307305;22;20034;-58
2022/09/15 06:23:31;;;;;;;17.48;15.13;;;;;;;15.03;77.81;100711.19;6306888;22;20412;-59
2022/09/15 06:26:11;;;;;;;17.95;15.07;;;;;;;15.04;77.72;100719.28;6305782;22;20003;-58
2022/09/15 06:28:38;;;;;;;20.88;15.30;;;;;;;15.00;78.01;100720.13;6306556;22;20060;-58
2022/09/15 06:31:07;;;;;;;19.17;15.32;;;;;;;15.03;78.01;100734.38;6300078;22;20011;-58
2022/09/15 06:33:33;;;;;;;18.33;15.23;;;;;;;15.05;78.08;100725.69;6304608;22;20004;-58
2022/09/15 06:36:00;;;;;;;18.67;15.70;;;;;;;15.06;77.80;100730.19;6300109;22;20418;-59
2022/09/15 06:38:25;;;;;;;17.58;15.02;;;;;;;15.10;77.97;100726.53;6301397;22;20018;-59
2022/09/15 06:40:55;;;;;;;17.23;15.43;;;;;;;15.10;78.27;100725.69;6302044;22;19999;-59
2022/09/15 06:43:20;;;;;;;17.27;15.48;;;;;;;15.11;78.25;100728.19;6303022;22;20045;-59
2022/09/15 06:45:46;;;;;;;21.83;15.80;;;;;;;15.13;78.41;100728.75;6301948;22;20304;-59
2022/09/15 06:48:11;;;;;;;18.63;16.13;;;;;;;15.17;78.44;100729.84;6301894;22;20007;-59
2022/09/15 06:50:36;;;;;;;17.90;15.98;;;;;;;15.18;78.40;100736.28;6301750;22;20008;-59
2022/09/15 06:53:02;;;;;;;20.35;15.90;;;;;;;15.18;78.17;100736.28;6303988;22;20006;-59
2022/09/15 06:55:27;;;;;;;21.90;16.20;;;;;;;15.19;77.92;100744.38;6302997;22;20110;-59
2022/09/15 06:57:52;;;;;;;20.10;15.38;;;;;;;15.20;78.20;100742.41;6301616;22;20476;-59
2022/09/15 07:00:18;;;;;;;20.00;15.20;;;;;;;15.25;78.01;100753.59;6302897;22;20003;-59
2022/09/15 07:02:47;;;;;;;18.50;16.45;;;;;;;15.23;78.65;100750.22;6302780;22;19999;-59
2022/09/15 07:05:13;;;;;;;18.75;16.10;;;;;;;15.26;78.59;100752.47;6302959;22;20477;-59
2022/09/15 07:07:38;;;;;;;20.10;15.45;;;;;;;15.33;78.42;100764.19;6303294;22;19999;-60
2022/09/15 07:10:05;;;;;;;22.85;15.60;;;;;;;15.34;78.96;100759.41;6305408;22;20323;-60
2022/09/15 07:12:31;;;;;;;19.80;14.80;;;;;;;15.36;78.18;100766.38;6305001;22;20013;-59
2022/09/15 07:14:56;;;;;;;17.10;14.02;;;;;;;15.43;78.39;100760.47;6302170;22;20061;-60
2022/09/15 07:17:21;;;;;;;18.13;15.63;;;;;;;15.44;78.30;100759.34;6303524;22;20004;-59
2022/09/15 07:19:47;;;;;;;16.80;14.70;;;;;;;15.47;78.56;100768.00;6305583;22;20006;-59
2022/09/15 07:22:12;;;;;;;18.02;14.85;;;;;;;15.50;78.40;100772.19;6303400;22;20417;-59
2022/09/15 07:24:37;;;;;;;19.83;15.73;;;;;;;15.51;78.31;100779.44;6304479;22;20007;-58
2022/09/15 07:27:07;;;;;;;17.38;13.73;;;;;;;15.55;78.08;100776.91;6301495;22;20078;-58
2022/09/15 07:29:33;;;;;;;15.80;14.02;;;;;;;15.54;78.67;100766.84;6303459;22;20323;-58
2022/09/15 07:31:58;;;;;;;20.38;15.35;;;;;;;15.58;78.96;100770.75;6303628;22;20012;-58
2022/09/15 07:34:23;;;;;;;21.40;14.88;;;;;;;15.60;78.37;100782.47;6302833;22;20010;-58
2022/09/15 07:36:48;;;;;;;21.83;14.18;;;;;;;15.59;79.05;100783.59;6304706;22;20396;-58
2022/09/15 07:39:14;;;;;;;15.60;13.45;;;;;;;15.62;78.79;100780.22;6303978;22;20011;-58
2022/09/15 07:41:39;;;;;;;22.75;14.05;;;;;;;15.63;78.61;100776.31;6301959;22;20461;-59
2022/09/15 07:44:07;;;;;;;17.73;14.18;;;;;;;15.63;78.64;100779.94;6302659;22;20006;-59
2022/09/15 07:46:32;;;;;;;17.25;13.95;;;;;;;15.67;78.61;100788.63;6303605;22;20004;-58
2022/09/15 07:48:59;;;;;;;17.23;13.20;;;;;;;15.68;78.18;100785.56;6303997;22;20003;-59
2022/09/15 07:51:25;;;;;;;21.23;13.57;;;;;;;15.71;78.40;100778.53;6303083;22;20015;-58
2022/09/15 07:53:51;;;;;;;14.30;12.77;;;;;;;15.74;78.59;100785.50;6302490;22;20033;-58
2022/09/15 07:56:17;;;;;;;18.30;12.82;;;;;;;15.75;78.57;100789.97;6301668;22;20025;-58
2022/09/15 07:58:43;;;;;;;16.30;13.15;;;;;;;15.75;78.45;100784.38;6299571;22;20082;-57
2022/09/15 08:01:10;;;;;;;18.85;13.88;;;;;;;15.75;78.25;100792.78;6305125;22;20088;-58
2022/09/15 08:03:40;;;;;;;20.45;14.10;;;;;;;15.76;78.44;100797.25;6304193;22;20050;-58
2022/09/15 08:06:06;;;;;;;17.23;13.88;;;;;;;15.77;78.70;100794.16;6305135;22;20088;-58
2022/09/15 08:08:31;;;;;;;18.45;13.30;;;;;;;15.80;78.53;100793.59;6304395;22;20378;-58
2022/09/15 08:10:56;;;;;;;16.67;11.70;;;;;;;15.81;77.82;100800.03;6303975;22;20003;-58
2022/09/15 08:13:23;;;;;;;17.05;12.10;;;;;;;15.78;78.02;100800.59;6303892;22;20011;-58
2022/09/15 08:15:48;;;;;;;18.17;12.70;;;;;;;15.77;78.33;100794.16;6304234;22;20015;-58
2022/09/15 08:18:14;;;;;;;16.85;12.57;;;;;;;15.80;78.32;100802.00;6303998;22;20098;-58
2022/09/15 08:20:41;;;;;;;14.82;11.82;;;;;;;15.82;78.31;100801.69;6304760;22;19995;-58
2022/09/15 08:23:07;;;;;;;14.52;11.88;;;;;;;15.82;78.40;100808.13;6304575;22;20481;-58
2022/09/15 08:25:34;;;;;;;15.57;11.40;;;;;;;15.83;78.14;100809.78;6303090;22;19999;-58
2022/09/15 08:28:00;;;;;;;16.92;11.32;;;;;;;15.86;78.02;100814.81;6303696;22;20435;-58
2022/09/15 08:30:26;;;;;;;17.73;12.13;;;;;;;15.87;78.30;100816.47;6302377;22;20010;-58
2022/09/15 08:32:51;;;;;;;20.15;12.50;;;;;;;15.90;78.47;100815.06;6303344;22;20015;-58
2022/09/15 08:35:18;;;;;;;15.90;12.77;;;;;;;15.93;78.33;100826.53;6305056;22;20084;-58
2022/09/15 08:37:43;;;;;;;15.35;11.68;;;;;;;15.93;78.46;100826.53;6303418;22;20081;-58
2022/09/15 08:40:16;;;;;;;16.77;11.25;;;;;;;15.92;77.81;100819.28;6305207;22;20061;-62
2022/09/15 08:42:43;;;;;;;15.73;11.90;;;;;;;15.89;77.88;100825.44;6306832;22;20030;-59
2022/09/15 08:45:23;;;;;;;14.93;10.90;;;;;;;15.92;77.75;100827.66;6306602;22;20007;-58
2022/09/15 08:47:54;;;;;;;14.18;11.40;;;;;;;15.91;77.92;100828.75;6307447;22;19999;-58
2022/09/15 08:50:29;;;;;;;14.30;11.40;;;;;;;15.93;77.98;100831.28;6308461;22;20089;-58
2022/09/15 08:53:11;;;;;;;17.83;11.40;;;;;;;15.94;77.61;100828.19;6306820;22;20011;-57
2022/09/15 08:55:46;;;;;;;15.77;11.45;;;;;;;15.97;77.42;100835.19;6308286;22;20007;-57
2022/09/15 08:58:16;;;;;;;17.88;11.48;;;;;;;15.95;77.17;100835.50;6307623;22;20003;-57
2022/09/15 09:00:43;;;;;;;15.30;10.88;;;;;;;15.99;77.41;100846.91;6305729;22;20003;-57
2022/09/15 09:03:28;;;;;;;16.30;10.93;;;;;;;16.03;77.28;100850.81;6307176;22;20041;-57
2022/09/15 09:06:04;;;;;;;16.45;10.60;;;;;;;16.03;77.27;100852.78;6307132;22;20003;-57
2022/09/15 09:08:55;;;;;;;12.75;10.48;;;;;;;16.06;77.16;100857.81;6307512;22;20007;-57
2022/09/15 09:11:42;;;;;;;12.70;10.23;;;;;;;16.12;77.20;100856.66;6306998;22;20384;-57
2022/09/15 09:14:37;;;;;;;13.75;10.48;;;;;;;16.14;76.94;100860.81;6306306;22;20027;-57
2022/09/15 09:17:21;;;;;;;12.73;8.88;;;;;;;16.19;76.73;100868.34;6307277;22;20004;-57
2022/09/15 09:20:02;;;;;;;15.02;9.50;;;;;;;16.19;76.58;100869.22;6306458;22;20485;-57
2022/09/15 09:22:33;;;;;;;13.63;10.38;;;;;;;16.20;76.78;100865.28;6307753;22;20323;-57
2022/09/15 09:25:02;;;;;;;13.93;8.80;;;;;;;16.24;76.39;100865.53;6305575;22;20003;-57
2022/09/15 09:27:33;;;;;;;10.98;9.02;;;;;;;16.26;76.24;100863.25;6307430;22;19995;-57
2022/09/15 09:30:06;;;;;;;15.07;8.82;;;;;;;16.28;76.18;100860.19;6307456;22;20003;-56
2022/09/15 09:32:39;;;;;;;10.98;7.90;;;;;;;16.29;75.63;100859.88;6306819;22;20023;-57
2022/09/15 09:35:16;;;;;;;10.15;7.07;;;;;;;16.32;75.71;100856.50;6307182;22;20086;-57
2022/09/15 09:37:41;;;;;;;9.95;6.57;;;;;;;16.32;75.17;100864.91;6307321;22;20014;-58
2022/09/15 09:40:12;;;;;;;12.25;6.45;;;;;;;16.32;74.83;100861.28;6306414;22;19999;-58
2022/09/15 09:42:38;;;;;;;7.50;6.20;;;;;;;16.32;75.02;100856.50;6307207;22;20011;-58
2022/09/15 09:45:05;;;;;;;9.02;5.22;;;;;;;16.30;73.75;100869.94;6307400;22;20003;-57
2022/09/15 09:47:33;;;;;;;9.70;4.97;;;;;;;16.29;73.67;100871.09;6308346;22;20003;-57
2022/09/15 09:49:59;;;;;;;7.03;5.30;;;;;;;16.30;74.21;100867.16;6306595;22;20034;-57
2022/09/15 09:52:45;;;;;;;12.77;5.75;;;;;;;16.32;74.81;100862.09;6307972;22;20011;-57
2022/09/15 09:55:22;;;;;;;9.05;5.25;;;;;;;16.29;74.64;100862.69;6303155;22;20035;-57
2022/09/15 09:57:48;;;;;;;8.90;5.70;;;;;;;16.28;74.38;100869.41;6305377;22;20442;-57
2022/09/15 10:00:34;;;;;;;10.73;5.28;;;;;;;16.30;74.94;100864.34;6306861;22;19995;-57
2022/09/15 10:03:15;;;;;;;12.60;6.15;;;;;;;16.29;74.74;100865.47;6304768;22;20543;-57
2022/09/15 10:05:41;;;;;;;9.35;5.40;;;;;;;16.28;74.43;100860.19;6305916;22;19999;-57
2022/09/15 10:08:18;;;;;;;10.75;6.47;;;;;;;16.26;74.67;100868.84;6302293;22;20011;-57
2022/09/15 10:10:57;;;;;;;10.88;5.97;;;;;;;16.28;74.77;100865.78;6304513;22;20079;-58
2022/09/15 10:13:22;;;;;;;9.20;6.28;;;;;;;16.29;75.60;100865.47;6304898;22;20006;-57
2022/09/15 10:15:56;;;;;;;10.90;7.05;;;;;;;16.30;75.67;100874.72;6304794;22;20007;-59
2022/09/15 10:18:27;;;;;;;13.93;7.47;;;;;;;16.25;75.18;100872.81;6302103;22;20058;-58
2022/09/15 10:20:52;;;;;;;9.07;7.30;;;;;;;16.26;74.77;100873.63;6303388;22;20082;-58
2022/09/15 10:23:17;;;;;;;10.32;6.72;;;;;;;16.27;74.58;100867.75;6304117;22;20081;-58
2022/09/15 10:25:44;;;;;;;8.95;5.88;;;;;;;16.25;74.69;100875.59;6303665;22;20026;-58
2022/09/15 10:28:15;;;;;;;9.10;4.50;;;;;;;16.26;74.00;100868.84;6304759;22;19999;-58
2022/09/15 10:31:02;;;;;;;11.27;3.78;;;;;;;16.31;74.10;100870.78;6303551;22;20072;-58
2022/09/15 10:33:30;;;;;;;6.72;3.70;;;;;;;16.24;73.09;100859.94;6304618;22;20015;-56
2022/09/15 10:36:02;;;;;;;8.30;3.53;;;;;;;16.27;73.64;100855.69;6303274;22;20133;-58
2022/09/15 10:38:40;;;;;;;10.13;3.13;;;;;;;16.29;73.52;100864.66;6302352;22;20010;-58
2022/09/15 10:41:19;;;;;;;4.07;2.22;;;;;;;16.32;72.87;100864.06;6303682;22;20435;-58
2022/09/15 10:44:00;;;;;;;4.53;2.30;;;;;;;16.33;72.65;100866.56;6305772;22;20057;-58
2022/09/15 10:46:45;;;;;;;7.97;2.50;;;;;;;16.35;72.97;100878.34;6304361;22;20462;-59
2022/09/15 10:49:19;;;;;;;5.63;2.10;;;;;;;16.38;72.84;100876.91;6305948;22;20466;-59
2022/09/15 10:52:18;;;;;;;9.80;2.70;;;;;;;16.39;73.12;100878.59;6303085;22;20007;-58
2022/09/15 10:55:07;;;;;;;5.05;2.20;;;;;;;16.39;73.11;100887.00;6252081;22;20035;-58
2022/09/15 10:57:58;;;;;;;7.32;2.25;;;;;;;16.40;72.76;100889.50;6305481;22;20319;-59
2022/09/15 11:00:32;;;;;;;3.08;1.55;;;;;;;16.39;71.65;100893.44;6304467;22;20015;-59
2022/09/15 11:03:17;;;;;;;7.75;1.73;;;;;;;16.36;71.29;100882.81;6305805;22;20003;-59
2022/09/15 11:06:00;;;;;;;6.60;1.65;;;;;;;16.36;71.45;100885.59;6304292;22;20014;-60
2022/09/15 11:08:37;;;;;;;8.65;1.83;;;;;;;16.34;71.64;100887.84;6305120;22;20014;-59
2022/09/15 11:11:22;;;;;;;4.32;1.33;;;;;;;16.38;69.21;100888.09;6304427;22;20003;-59
2022/09/15 11:14:10;;;;;;;2.55;0.93;;;;;;;16.35;66.96;100892.34;6304530;22;20014;-59
2022/09/15 11:17:15;;;;;;;4.03;0.82;;;;;;;16.45;68.25;100892.25;6303842;22;20014;-59
2022/09/15 11:20:14;;;;;;;3.35;0.88;;;;;;;16.49;67.09;100883.28;6224893;22;20080;-59
2022/09/15 11:22:50;;;;;;;3.95;0.88;;;;;;;16.51;66.04;100887.47;6304869;22;20090;-59
2022/09/15 11:25:25;;;;;;;4.05;0.73;;;;;;;16.56;66.50;100886.59;6304575;22;20078;-58
2022/09/15 11:28:09;;;;;;;4.50;1.02;;;;;;;16.56;66.99;100886.59;6304274;22;20003;-58